Llica d'Amunt, Spain
Current Conditions -  °F | °C
As of 11:30 AM on Thursday 23 Oct 2014 (Local Time) from LELL Reporting Station
Clear Clear  
Wind Chill: 66°   Ceiling: Unl
Heat Index: 66°   Visibility: 6mi
Dew Point: 41°   Wind: 3mph
Humidity: 40%   Direction: 270°W
Pressure: 30.12"   Gusts: NA
Location:  41.62°N, 2.23°E
Report Text: LELL 230930Z 27003KT 210V320 CAVOK 19/05 Q1020
Loading
Personal Weather Stations






























Interactive Weather Map
Tropical Storm Tracking
New forecast layout! Learn more

10-Day Weather Forecast

Advertisements
Track Severe Weather on mobile